Time;durP1;ratioP1;P1;durP2;ratioP2;P2;SDS_P1;SDS_P2;PMS_P1;PMS_P2;Temp;Humidity;BMP_temperature;BMP_pressure;BME280_temperature;BME280_humidity;BME280_pressure;Samples;Min_cycle;Max_cycle;Signal;HPM_P1;HPM_P2
2022/01/09 00:00:21;;;;;;;10.93;4.53;;;3.50;99.90;;;;;;5013523;28;20123;-48
2022/01/09 00:02:46;;;;;;;9.93;4.57;;;3.50;99.90;;;;;;5014109;28;20436;-48
2022/01/09 00:05:13;;;;;;;10.88;4.60;;;3.50;99.90;;;;;;5015722;28;20030;-47
2022/01/09 00:07:39;;;;;;;10.48;4.32;;;3.60;99.90;;;;;;5014172;28;20164;-49
2022/01/09 00:10:06;;;;;;;11.00;3.92;;;3.60;99.90;;;;;;5014349;28;20403;-49
2022/01/09 00:12:32;;;;;;;6.03;3.63;;;3.60;99.90;;;;;;5010212;28;20026;-48
2022/01/09 00:14:58;;;;;;;7.70;4.07;;;3.60;99.90;;;;;;5010125;28;20033;-48
2022/01/09 00:17:23;;;;;;;9.18;4.68;;;3.60;99.90;;;;;;5015500;28;20052;-47
2022/01/09 00:19:49;;;;;;;7.93;3.70;;;3.60;99.90;;;;;;5015237;28;20053;-51
2022/01/09 00:22:18;;;;;;;9.48;4.47;;;3.60;99.90;;;;;;5015095;28;20040;-47
2022/01/09 00:24:43;;;;;;;9.27;4.22;;;3.70;99.90;;;;;;5016091;28;20037;-47
2022/01/09 00:27:09;;;;;;;7.30;4.18;;;3.70;99.90;;;;;;5014709;28;20041;-48
2022/01/09 00:29:35;;;;;;;10.10;4.95;;;3.60;99.90;;;;;;5013160;28;20033;-49
2022/01/09 00:32:00;;;;;;;12.40;4.97;;;3.70;99.90;;;;;;5014929;28;20084;-49
2022/01/09 00:34:26;;;;;;;10.52;4.85;;;3.70;99.90;;;;;;4996226;28;20045;-50
2022/01/09 00:36:52;;;;;;;12.50;5.25;;;3.60;99.90;;;;;;5013096;28;20034;-48
2022/01/09 00:39:17;;;;;;;8.20;4.50;;;3.60;99.90;;;;;;5014951;28;20508;-50
2022/01/09 00:41:43;;;;;;;10.15;4.80;;;3.60;99.90;;;;;;5010393;28;20034;-48
2022/01/09 00:44:08;;;;;;;6.68;4.13;;;3.60;99.90;;;;;;5013760;28;20026;-50
2022/01/09 00:46:34;;;;;;;10.25;4.50;;;3.60;99.90;;;;;;5013461;28;20399;-49
2022/01/09 00:49:04;;;;;;;8.25;5.13;;;3.60;99.90;;;;;;5015795;28;20105;-48
2022/01/09 00:51:31;;;;;;;8.52;4.38;;;3.60;99.90;;;;;;5010561;28;20504;-50
2022/01/09 00:53:57;;;;;;;8.18;3.53;;;3.50;99.90;;;;;;5016037;28;20021;-48
2022/01/09 00:56:22;;;;;;;9.50;3.92;;;3.50;99.90;;;;;;5015418;28;20040;-48
2022/01/09 00:58:48;;;;;;;7.40;4.10;;;3.50;99.90;;;;;;5015690;28;20053;-47
2022/01/09 01:01:14;;;;;;;9.55;3.85;;;3.50;99.90;;;;;;5014521;28;20034;-48
2022/01/09 01:03:39;;;;;;;9.98;4.20;;;3.60;99.90;;;;;;5014570;28;20037;-53
2022/01/09 01:06:05;;;;;;;7.68;3.78;;;3.60;99.90;;;;;;5016207;28;20030;-49
2022/01/09 01:08:31;;;;;;;6.95;3.85;;;3.60;99.90;;;;;;5013631;28;20044;-48
2022/01/09 01:10:57;;;;;;;9.65;4.22;;;3.60;99.90;;;;;;5011185;28;20247;-48
2022/01/09 01:13:22;;;;;;;6.55;3.55;;;3.60;99.90;;;;;;5011437;28;20037;-49
2022/01/09 01:15:48;;;;;;;7.70;3.83;;;3.70;99.90;;;;;;5011589;28;20529;-48
2022/01/09 01:18:14;;;;;;;7.05;3.50;;;3.70;99.90;;;;;;5012235;28;20084;-48
2022/01/09 01:20:40;;;;;;;7.72;3.25;;;3.70;99.90;;;;;;5008474;28;20033;-49
2022/01/09 01:23:06;;;;;;;11.65;3.35;;;3.70;99.90;;;;;;5011918;28;20430;-49
2022/01/09 01:25:32;;;;;;;8.10;3.58;;;3.70;99.90;;;;;;5011391;28;20033;-48
2022/01/09 01:27:58;;;;;;;5.80;3.42;;;3.70;99.90;;;;;;5009333;28;20407;-48
2022/01/09 01:30:23;;;;;;;8.82;3.92;;;3.70;99.90;;;;;;5005258;28;20041;-48
2022/01/09 01:32:49;;;;;;;7.97;3.70;;;3.70;99.90;;;;;;5011838;28;20061;-48
2022/01/09 01:35:15;;;;;;;6.43;3.63;;;3.70;99.90;;;;;;5010859;28;20542;-48
2022/01/09 01:37:42;;;;;;;7.63;3.92;;;3.70;99.90;;;;;;5011759;28;20026;-48
2022/01/09 01:40:11;;;;;;;8.85;4.22;;;3.70;99.90;;;;;;5010480;28;20061;-48
2022/01/09 01:42:37;;;;;;;9.30;4.10;;;3.70;99.90;;;;;;5011672;28;20358;-49
2022/01/09 01:45:03;;;;;;;8.38;4.18;;;3.70;99.90;;;;;;5011286;28;20037;-47
2022/01/09 01:47:29;;;;;;;8.30;3.80;;;3.60;99.90;;;;;;5011680;28;20068;-48
2022/01/09 01:49:55;;;;;;;10.55;4.28;;;3.60;99.90;;;;;;5010269;28;20555;-48
2022/01/09 01:52:29;;;;;;;11.05;4.68;;;3.50;99.90;;;;;;5011498;28;20128;-48
2022/01/09 01:54:55;;;;;;;11.40;4.03;;;3.50;99.90;;;;;;5011079;28;20041;-47
2022/01/09 01:57:21;;;;;;;10.45;4.75;;;3.40;99.90;;;;;;5011431;28;20056;-48
2022/01/09 01:59:47;;;;;;;12.35;4.50;;;3.50;99.90;;;;;;5010129;28;20135;-48
2022/01/09 02:02:12;;;;;;;8.13;4.40;;;3.40;99.90;;;;;;5011452;28;20021;-48
2022/01/09 02:04:38;;;;;;;10.43;4.03;;;3.40;99.90;;;;;;5010251;28;20061;-49
2022/01/09 02:07:04;;;;;;;13.15;3.63;;;3.40;99.90;;;;;;5010140;28;20104;-48
2022/01/09 02:09:30;;;;;;;6.50;4.32;;;3.40;99.90;;;;;;5009546;28;20052;-48
2022/01/09 02:11:56;;;;;;;8.90;4.18;;;3.40;99.90;;;;;;5011347;28;20034;-49
2022/01/09 02:14:21;;;;;;;9.63;4.10;;;3.40;99.90;;;;;;5010236;28;20037;-48
2022/01/09 02:16:49;;;;;;;6.47;4.18;;;3.40;99.90;;;;;;5010966;28;20061;-48
2022/01/09 02:19:16;;;;;;;11.15;4.85;;;3.40;99.90;;;;;;5009995;28;20406;-48
2022/01/09 02:21:46;;;;;;;13.80;4.47;;;3.30;99.90;;;;;;5010844;28;20026;-48
2022/01/09 02:24:13;;;;;;;8.57;4.53;;;3.30;99.90;;;;;;5009536;28;20069;-48
2022/01/09 02:26:39;;;;;;;10.35;4.72;;;3.20;99.90;;;;;;5011034;28;20029;-48
2022/01/09 02:29:05;;;;;;;10.82;5.10;;;3.20;99.90;;;;;;5009365;28;20058;-47
2022/01/09 02:31:32;;;;;;;10.05;4.32;;;3.20;99.90;;;;;;5013289;28;20058;-48
2022/01/09 02:33:58;;;;;;;11.20;4.65;;;3.20;99.90;;;;;;5010715;28;20037;-47
2022/01/09 02:36:24;;;;;;;12.50;5.22;;;3.20;99.90;;;;;;5011041;28;20057;-48
2022/01/09 02:38:49;;;;;;;10.02;4.97;;;3.20;99.90;;;;;;5010384;28;20041;-48
2022/01/09 02:41:15;;;;;;;7.75;5.35;;;3.10;99.90;;;;;;5010348;28;20038;-48
2022/01/09 02:43:41;;;;;;;11.30;5.13;;;3.10;99.90;;;;;;5011470;28;20076;-48
2022/01/09 02:46:16;;;;;;;9.65;4.43;;;3.10;99.90;;;;;;5014450;28;20038;-48
2022/01/09 02:48:43;;;;;;;9.13;5.05;;;3.00;99.90;;;;;;5014703;28;20040;-47
2022/01/09 02:51:14;;;;;;;14.63;4.90;;;2.90;99.90;;;;;;5013671;28;20096;-48
2022/01/09 02:53:44;;;;;;;9.02;5.28;;;2.90;99.90;;;;;;5012384;28;20108;-47
2022/01/09 02:56:10;;;;;;;9.25;5.07;;;2.90;99.90;;;;;;5010233;28;20491;-48
2022/01/09 02:58:37;;;;;;;7.78;5.10;;;2.90;99.90;;;;;;5009338;28;20033;-47
2022/01/09 03:01:04;;;;;;;11.18;6.03;;;2.90;99.90;;;;;;5009192;28;20037;-48
2022/01/09 03:03:30;;;;;;;10.52;5.22;;;2.90;99.90;;;;;;5009519;28;20649;-48
2022/01/09 03:05:56;;;;;;;9.75;5.30;;;2.90;99.90;;;;;;5010201;28;20033;-48
2022/01/09 03:08:22;;;;;;;15.10;4.97;;;2.90;99.90;;;;;;5009430;28;20056;-48
2022/01/09 03:10:47;;;;;;;14.30;5.28;;;2.80;99.90;;;;;;5008790;28;20034;-48
2022/01/09 03:13:13;;;;;;;14.38;5.50;;;2.80;99.90;;;;;;5009594;28;20508;-48
2022/01/09 03:15:38;;;;;;;11.52;5.43;;;2.80;99.90;;;;;;5009385;28;20041;-48
2022/01/09 03:18:04;;;;;;;11.82;5.97;;;2.80;99.90;;;;;;5008947;28;20420;-48
2022/01/09 03:20:30;;;;;;;9.85;5.38;;;2.70;99.90;;;;;;5008935;28;20049;-49
2022/01/09 03:22:56;;;;;;;11.15;5.50;;;2.80;99.90;;;;;;5009784;28;20044;-49
2022/01/09 03:25:24;;;;;;;12.80;5.20;;;2.80;99.90;;;;;;5009469;28;20033;-49
2022/01/09 03:27:50;;;;;;;10.13;5.30;;;2.80;99.90;;;;;;5009588;28;20041;-47
2022/01/09 03:30:20;;;;;;;12.15;4.93;;;2.80;99.90;;;;;;5009088;28;20030;-48
2022/01/09 03:32:47;;;;;;;13.73;5.30;;;2.80;99.90;;;;;;5009429;28;20061;-48
2022/01/09 03:35:15;;;;;;;11.32;5.47;;;2.80;99.90;;;;;;5008651;28;20059;-47
2022/01/09 03:37:42;;;;;;;10.30;5.32;;;2.80;99.90;;;;;;5009648;28;20394;-47
2022/01/09 03:40:10;;;;;;;9.27;4.90;;;2.80;99.90;;;;;;5008594;28;20030;-47
2022/01/09 03:42:36;;;;;;;10.63;5.43;;;2.90;99.90;;;;;;5008453;28;20057;-48
2022/01/09 03:45:04;;;;;;;9.25;5.15;;;2.90;99.90;;;;;;5009182;28;20503;-47
2022/01/09 03:47:30;;;;;;;15.38;5.15;;;2.90;99.90;;;;;;5009345;28;20433;-47
2022/01/09 03:49:55;;;;;;;18.90;5.82;;;2.90;99.90;;;;;;5008747;28;20088;-47
2022/01/09 03:52:26;;;;;;;11.43;5.95;;;2.90;99.90;;;;;;5009663;28;20030;-47
2022/01/09 03:54:52;;;;;;;10.95;5.40;;;2.90;99.90;;;;;;5008287;28;20069;-48
2022/01/09 03:57:18;;;;;;;9.60;5.38;;;2.90;99.90;;;;;;5008370;28;20567;-47
2022/01/09 03:59:43;;;;;;;9.35;5.78;;;2.90;99.90;;;;;;5008088;28;20033;-47
2022/01/09 04:02:09;;;;;;;10.05;5.45;;;3.00;99.90;;;;;;5009522;28;20073;-49
2022/01/09 04:04:34;;;;;;;12.98;5.47;;;2.90;99.90;;;;;;5008609;28;20022;-49
2022/01/09 04:07:00;;;;;;;14.40;6.15;;;3.00;99.90;;;;;;5009372;28;20058;-47
2022/01/09 04:09:45;;;;;;;11.13;5.55;;;3.00;99.90;;;;;;5007997;28;20033;-48
2022/01/09 04:12:30;;;;;;;9.27;5.22;;;3.00;99.90;;;;;;5009115;28;20066;-47
2022/01/09 04:14:55;;;;;;;12.32;5.93;;;3.00;99.90;;;;;;5008740;28;20030;-49
2022/01/09 04:17:36;;;;;;;10.05;5.57;;;3.00;99.90;;;;;;5008828;28;20172;-48
2022/01/09 04:20:02;;;;;;;12.77;5.45;;;3.00;99.90;;;;;;5008823;28;20121;-47
2022/01/09 04:22:28;;;;;;;8.70;5.40;;;3.00;99.90;;;;;;5008670;28;20574;-47
2022/01/09 04:24:53;;;;;;;12.65;5.68;;;3.00;99.90;;;;;;5008658;28;20113;-47
2022/01/09 04:27:19;;;;;;;12.40;6.00;;;3.10;99.90;;;;;;5008632;28;20033;-47
2022/01/09 04:29:44;;;;;;;9.43;5.40;;;3.00;99.90;;;;;;5007927;28;20068;-46
2022/01/09 04:32:10;;;;;;;15.10;5.82;;;3.00;99.90;;;;;;5009258;28;20529;-47
2022/01/09 04:34:35;;;;;;;12.70;4.95;;;3.10;99.90;;;;;;5008483;28;20038;-46
2022/01/09 04:37:01;;;;;;;12.55;5.38;;;3.00;99.90;;;;;;5009298;28;20056;-47
2022/01/09 04:39:28;;;;;;;10.07;5.40;;;3.00;99.90;;;;;;5008439;28;20446;-47
2022/01/09 04:41:54;;;;;;;14.00;5.60;;;3.10;99.90;;;;;;5009209;28;20111;-48
2022/01/09 04:44:19;;;;;;;10.55;5.60;;;3.10;99.90;;;;;;5008122;28;20344;-46
2022/01/09 04:46:52;;;;;;;10.23;5.43;;;3.10;99.90;;;;;;5010866;28;20056;-46
2022/01/09 04:49:22;;;;;;;9.82;5.63;;;3.10;99.90;;;;;;5011849;28;20438;-48
2022/01/09 04:51:48;;;;;;;10.38;6.03;;;3.00;99.90;;;;;;5012686;28;20025;-48
2022/01/09 04:54:14;;;;;;;7.78;5.10;;;3.00;99.90;;;;;;5012101;28;20026;-47
2022/01/09 04:56:39;;;;;;;12.20;5.78;;;3.00;99.90;;;;;;5012706;28;20395;-47
2022/01/09 04:59:05;;;;;;;10.40;5.85;;;3.00;99.90;;;;;;5012135;28;20114;-47
2022/01/09 05:01:31;;;;;;;12.93;5.90;;;3.00;99.90;;;;;;5011972;28;20029;-45
2022/01/09 05:03:56;;;;;;;10.35;5.80;;;3.00;99.90;;;;;;5011964;28;20491;-47
2022/01/09 05:06:22;;;;;;;11.05;5.78;;;3.00;99.90;;;;;;5011566;28;20029;-46
2022/01/09 05:08:48;;;;;;;13.07;6.00;;;3.00;99.90;;;;;;5012870;28;20120;-46
2022/01/09 05:11:13;;;;;;;13.98;5.90;;;2.90;99.90;;;;;;5011207;28;20025;-48
2022/01/09 05:13:39;;;;;;;11.90;5.75;;;2.90;99.90;;;;;;5012243;28;20742;-47
2022/01/09 05:16:05;;;;;;;11.00;5.93;;;2.90;99.90;;;;;;5011929;28;20030;-47
2022/01/09 05:18:32;;;;;;;14.45;5.97;;;2.90;99.90;;;;;;5011644;28;20026;-47
2022/01/09 05:20:58;;;;;;;9.82;5.47;;;2.90;99.90;;;;;;5011540;28;20097;-46
2022/01/09 05:23:24;;;;;;;15.43;6.03;;;2.80;99.90;;;;;;5011065;28;20022;-47
2022/01/09 05:25:49;;;;;;;9.38;5.70;;;2.80;99.90;;;;;;5027054;28;20527;-48
2022/01/09 05:28:15;;;;;;;10.30;5.40;;;2.80;99.90;;;;;;5011112;28;20065;-49
2022/01/09 05:30:40;;;;;;;9.77;6.32;;;2.70;99.90;;;;;;5011479;28;20057;-48
2022/01/09 05:33:06;;;;;;;11.65;5.53;;;2.70;99.90;;;;;;5010391;28;20088;-48
2022/01/09 05:35:32;;;;;;;10.95;6.25;;;2.70;99.90;;;;;;5011324;28;20510;-48
2022/01/09 05:37:57;;;;;;;12.70;6.32;;;2.70;99.90;;;;;;5010936;28;20034;-48
2022/01/09 05:40:23;;;;;;;14.10;6.55;;;2.70;99.90;;;;;;5010765;28;20038;-48
2022/01/09 05:42:49;;;;;;;10.88;5.88;;;2.60;99.90;;;;;;5011679;28;20109;-51
2022/01/09 05:45:17;;;;;;;11.90;6.00;;;2.60;99.90;;;;;;5011570;28;20036;-50
2022/01/09 05:47:44;;;;;;;16.23;6.82;;;2.60;99.90;;;;;;5010709;28;20409;-52
2022/01/09 05:50:09;;;;;;;12.80;6.43;;;2.60;99.90;;;;;;5010632;28;20030;-49
2022/01/09 05:52:35;;;;;;;12.68;6.40;;;2.60;99.90;;;;;;5012010;28;20026;-50
2022/01/09 05:55:01;;;;;;;17.23;7.00;;;2.60;99.90;;;;;;5011621;28;20415;-49
2022/01/09 05:57:27;;;;;;;16.48;7.10;;;2.60;99.90;;;;;;5010863;28;20518;-52
2022/01/09 05:59:52;;;;;;;15.98;6.97;;;2.50;99.90;;;;;;5010427;28;20106;-51
2022/01/09 06:02:18;;;;;;;15.77;7.03;;;2.50;99.90;;;;;;5011719;28;20469;-52
2022/01/09 06:04:44;;;;;;;12.75;7.03;;;2.50;99.90;;;;;;5010339;28;20341;-51
2022/01/09 06:07:09;;;;;;;14.65;7.53;;;2.40;99.90;;;;;;5011774;28;20037;-51
2022/01/09 06:09:35;;;;;;;17.50;7.75;;;2.40;99.90;;;;;;5009922;28;20022;-52
2022/01/09 06:12:01;;;;;;;15.05;7.80;;;2.50;99.90;;;;;;5010471;28;20048;-50
2022/01/09 06:14:26;;;;;;;13.50;7.70;;;2.40;99.90;;;;;;5010787;28;20120;-51
2022/01/09 06:16:52;;;;;;;13.93;8.35;;;2.40;99.90;;;;;;5007910;28;20058;-54
2022/01/09 06:19:18;;;;;;;16.90;8.77;;;2.40;99.90;;;;;;5009780;28;20030;-49
2022/01/09 06:21:43;;;;;;;14.55;8.30;;;2.40;99.90;;;;;;5010663;28;20033;-51
2022/01/09 06:24:09;;;;;;;14.50;8.20;;;2.40;99.90;;;;;;5010170;28;20108;-48
2022/01/09 06:26:35;;;;;;;14.50;8.18;;;2.40;99.90;;;;;;5009676;28;20021;-48
2022/01/09 06:29:00;;;;;;;16.58;8.15;;;2.40;99.90;;;;;;4991434;28;20033;-51
2022/01/09 06:31:26;;;;;;;17.00;8.40;;;2.50;99.90;;;;;;5010070;28;20387;-48
2022/01/09 06:33:52;;;;;;;15.40;9.00;;;2.50;99.90;;;;;;5010269;28;20038;-47
2022/01/09 06:36:17;;;;;;;13.13;9.00;;;2.50;99.90;;;;;;5010104;28;20050;-48
2022/01/09 06:38:43;;;;;;;12.98;8.65;;;2.40;99.90;;;;;;5007719;28;20045;-49
2022/01/09 06:41:09;;;;;;;12.32;8.00;;;2.50;99.90;;;;;;5009250;28;20357;-48
2022/01/09 06:43:34;;;;;;;21.73;9.00;;;2.50;99.90;;;;;;5009158;28;20026;-52
2022/01/09 06:46:00;;;;;;;16.23;8.88;;;2.50;99.90;;;;;;5010608;28;20025;-48
2022/01/09 06:48:26;;;;;;;20.05;9.68;;;2.50;99.90;;;;;;5009454;28;20025;-47
2022/01/09 06:50:51;;;;;;;18.77;9.50;;;2.40;99.90;;;;;;5009372;28;20516;-48
2022/01/09 06:53:17;;;;;;;15.07;9.32;;;2.40;99.90;;;;;;5009507;28;20097;-47
2022/01/09 06:55:43;;;;;;;17.48;9.43;;;2.40;99.90;;;;;;5010017;28;20036;-48
2022/01/09 06:58:09;;;;;;;16.55;9.15;;;2.40;99.90;;;;;;5009085;28;20029;-47
2022/01/09 07:00:35;;;;;;;16.33;9.27;;;2.40;99.90;;;;;;5009089;28;20790;-49
2022/01/09 07:03:00;;;;;;;16.13;9.65;;;2.40;99.90;;;;;;5009639;28;20479;-47
2022/01/09 07:05:26;;;;;;;16.23;9.15;;;2.40;99.90;;;;;;5001731;28;20037;-48
2022/01/09 07:07:52;;;;;;;14.90;9.63;;;2.40;99.90;;;;;;5008944;28;20033;-48
2022/01/09 07:10:17;;;;;;;14.90;10.82;;;2.30;99.90;;;;;;5007499;28;20037;-48
2022/01/09 07:12:43;;;;;;;15.23;9.55;;;2.30;99.90;;;;;;5009016;28;20036;-48
2022/01/09 07:15:09;;;;;;;14.77;10.15;;;2.40;99.90;;;;;;5009071;28;20057;-48
2022/01/09 07:17:35;;;;;;;14.90;9.82;;;2.40;99.90;;;;;;5009435;28;20026;-48
2022/01/09 07:20:02;;;;;;;14.55;9.15;;;2.40;99.90;;;;;;5008161;28;20022;-47
2022/01/09 07:22:27;;;;;;;19.33;10.95;;;2.30;99.90;;;;;;5009669;28;20034;-48
2022/01/09 07:24:53;;;;;;;19.52;11.55;;;2.30;99.90;;;;;;5007611;28;20121;-47
2022/01/09 07:27:19;;;;;;;18.83;11.55;;;2.30;99.90;;;;;;5009550;28;20030;-49
2022/01/09 07:29:45;;;;;;;19.50;11.23;;;2.30;99.90;;;;;;5008332;28;20042;-47
2022/01/09 07:32:10;;;;;;;17.98;10.80;;;2.30;99.90;;;;;;5009743;28;20030;-46
2022/01/09 07:34:36;;;;;;;19.92;11.75;;;2.40;99.90;;;;;;5009166;28;20496;-46
2022/01/09 07:37:02;;;;;;;17.08;11.32;;;2.40;99.90;;;;;;5009845;28;20325;-46
2022/01/09 07:39:28;;;;;;;16.77;10.82;;;2.40;99.90;;;;;;5002666;28;20034;-49
2022/01/09 07:41:54;;;;;;;21.75;11.48;;;2.40;99.90;;;;;;5009581;28;20411;-47
2022/01/09 07:44:20;;;;;;;21.98;11.65;;;2.40;99.90;;;;;;5007793;28;20045;-47
2022/01/09 07:46:46;;;;;;;20.00;12.60;;;2.40;99.90;;;;;;5009844;28;20049;-48
2022/01/09 07:49:11;;;;;;;17.45;11.80;;;2.40;99.90;;;;;;5008882;28;20434;-48
2022/01/09 07:51:37;;;;;;;18.23;11.40;;;2.30;99.90;;;;;;5006503;28;20038;-48
2022/01/09 07:54:03;;;;;;;17.92;11.07;;;2.30;99.90;;;;;;5009160;28;20022;-47
2022/01/09 07:56:28;;;;;;;18.17;12.07;;;2.40;99.90;;;;;;5008939;28;20091;-47
2022/01/09 07:58:54;;;;;;;20.30;12.48;;;2.30;99.90;;;;;;5009500;28;20518;-47
2022/01/09 08:01:20;;;;;;;18.23;11.02;;;2.30;99.90;;;;;;5008759;28;20034;-48
2022/01/09 08:03:45;;;;;;;18.80;11.00;;;2.40;99.90;;;;;;5009507;28;20078;-47
2022/01/09 08:06:11;;;;;;;16.60;11.40;;;2.40;99.90;;;;;;5008578;28;20030;-50
2022/01/09 08:08:36;;;;;;;18.15;11.00;;;2.30;99.90;;;;;;5008407;28;20029;-47
2022/01/09 08:11:02;;;;;;;19.58;11.07;;;2.30;99.90;;;;;;5008963;28;20053;-47
2022/01/09 08:13:28;;;;;;;19.13;12.00;;;2.30;99.90;;;;;;5008962;28;20573;-46
2022/01/09 08:15:53;;;;;;;21.05;11.63;;;2.30;99.90;;;;;;5009527;28;20475;-47
2022/01/09 08:18:19;;;;;;;18.73;11.50;;;2.30;99.90;;;;;;5008529;28;20184;-47
2022/01/09 08:20:44;;;;;;;23.45;12.82;;;2.30;99.90;;;;;;5011353;28;20025;-46
2022/01/09 08:23:10;;;;;;;19.98;11.70;;;2.30;99.90;;;;;;5010462;28;20032;-48
2022/01/09 08:25:36;;;;;;;18.98;11.50;;;2.40;99.90;;;;;;5012262;28;20025;-47
2022/01/09 08:28:02;;;;;;;20.38;11.48;;;2.40;99.90;;;;;;5013630;28;20038;-47
2022/01/09 08:30:27;;;;;;;19.70;12.32;;;2.40;99.90;;;;;;5013396;28;20049;-47
2022/01/09 08:32:53;;;;;;;20.88;11.20;;;2.50;99.90;;;;;;5010572;28;20124;-47
2022/01/09 08:35:20;;;;;;;16.98;11.50;;;2.40;99.90;;;;;;5011994;28;20041;-48
2022/01/09 08:37:46;;;;;;;15.98;10.95;;;2.40;99.90;;;;;;5012766;28;20116;-49
2022/01/09 08:40:20;;;;;;;16.95;11.05;;;2.40;99.90;;;;;;5011395;28;20026;-48
2022/01/09 08:42:46;;;;;;;19.50;11.43;;;2.40;99.90;;;;;;5006724;28;20053;-47
2022/01/09 08:45:12;;;;;;;18.27;11.60;;;2.40;99.90;;;;;;5009891;28;20021;-49
2022/01/09 08:47:38;;;;;;;18.92;10.05;;;2.50;99.90;;;;;;5012741;28;20076;-47
2022/01/09 08:50:06;;;;;;;19.33;11.05;;;2.50;99.90;;;;;;5011505;28;20034;-48
2022/01/09 08:52:32;;;;;;;19.10;11.00;;;2.50;99.90;;;;;;5011966;28;20037;-48
2022/01/09 08:54:57;;;;;;;16.02;10.63;;;2.60;99.90;;;;;;5011798;28;20462;-47
2022/01/09 08:57:25;;;;;;;16.83;10.85;;;2.50;99.90;;;;;;5012310;28;20460;-47
2022/01/09 08:59:51;;;;;;;17.48;10.50;;;2.50;99.90;;;;;;5011098;28;20519;-47
2022/01/09 09:02:17;;;;;;;15.63;9.93;;;2.60;99.90;;;;;;5012236;28;20044;-46
2022/01/09 09:04:43;;;;;;;17.25;10.32;;;2.60;99.90;;;;;;5011314;28;20120;-47
2022/01/09 09:07:08;;;;;;;15.10;9.75;;;2.60;99.90;;;;;;5012241;28;20084;-53
2022/01/09 09:09:34;;;;;;;15.57;9.68;;;2.70;99.90;;;;;;5009247;28;20487;-49
2022/01/09 09:12:01;;;;;;;15.73;10.02;;;2.70;99.90;;;;;;5009730;28;20042;-47
2022/01/09 09:14:27;;;;;;;15.93;10.05;;;2.70;99.90;;;;;;5008682;28;20034;-47
2022/01/09 09:16:52;;;;;;;16.05;10.13;;;2.70;99.90;;;;;;5011107;28;20041;-49
2022/01/09 09:19:18;;;;;;;18.77;9.60;;;2.70;99.90;;;;;;5010358;28;20488;-48
2022/01/09 09:21:46;;;;;;;16.48;9.93;;;2.70;99.90;;;;;;5010982;28;20499;-47
2022/01/09 09:24:12;;;;;;;18.73;11.10;;;2.80;99.90;;;;;;5006616;28;20034;-48
2022/01/09 09:26:38;;;;;;;19.20;9.98;;;2.80;99.90;;;;;;5008545;28;20034;-49
2022/01/09 09:29:05;;;;;;;16.55;10.60;;;2.90;99.90;;;;;;5011529;28;20403;-48
2022/01/09 09:31:31;;;;;;;14.68;9.85;;;2.90;99.90;;;;;;5009403;28;20033;-48
2022/01/09 09:33:57;;;;;;;16.00;9.65;;;2.90;99.90;;;;;;5010662;28;20034;-48
2022/01/09 09:36:24;;;;;;;17.05;9.88;;;2.90;99.90;;;;;;5010734;28;20034;-45
2022/01/09 09:38:50;;;;;;;17.38;10.52;;;2.90;99.90;;;;;;5010880;28;20038;-46
2022/01/09 09:41:15;;;;;;;15.48;10.02;;;2.90;99.90;;;;;;5010649;28;20026;-47
2022/01/09 09:43:41;;;;;;;15.40;9.75;;;3.00;99.90;;;;;;5011005;28;20041;-48
2022/01/09 09:46:07;;;;;;;14.90;9.55;;;3.00;99.90;;;;;;5011366;28;20034;-45
2022/01/09 09:48:32;;;;;;;13.43;9.50;;;3.00;99.90;;;;;;5011428;28;20022;-49
2022/01/09 09:50:58;;;;;;;15.90;9.77;;;3.00;99.90;;;;;;5009789;28;20054;-48
2022/01/09 09:53:24;;;;;;;15.82;9.77;;;3.00;99.90;;;;;;5010119;28;20041;-48
2022/01/09 09:55:53;;;;;;;16.42;10.60;;;3.00;99.90;;;;;;5008806;28;20038;-48
2022/01/09 09:58:19;;;;;;;17.35;10.13;;;3.10;99.90;;;;;;5010331;28;20052;-49
2022/01/09 10:00:55;;;;;;;15.57;10.02;;;3.10;99.90;;;;;;5006022;28;20033;-45
2022/01/09 10:03:32;;;;;;;17.92;8.77;;;3.10;99.90;;;;;;5011363;28;20044;-46
2022/01/09 10:05:59;;;;;;;15.75;9.63;;;3.20;99.90;;;;;;5010571;28;20041;-51
2022/01/09 10:08:40;;;;;;;16.50;9.18;;;3.20;99.90;;;;;;5010389;28;20036;-51
2022/01/09 10:11:18;;;;;;;15.82;8.80;;;3.20;99.90;;;;;;5009635;28;20136;-51
2022/01/09 10:13:44;;;;;;;13.95;7.90;;;3.20;99.90;;;;;;5010347;28;20484;-47
2022/01/09 10:16:10;;;;;;;13.27;8.10;;;3.30;99.90;;;;;;5011018;28;20389;-49
2022/01/09 10:18:49;;;;;;;11.90;8.15;;;3.30;99.90;;;;;;5008269;28;20026;-46
2022/01/09 10:21:22;;;;;;;13.55;7.90;;;3.30;99.90;;;;;;5009844;28;20409;-44
2022/01/09 10:24:05;;;;;;;12.95;7.75;;;3.40;99.90;;;;;;5011204;28;20054;-48
2022/01/09 10:26:34;;;;;;;12.60;7.85;;;3.40;99.90;;;;;;5000876;28;20033;-45
2022/01/09 10:29:00;;;;;;;11.55;8.25;;;3.40;99.90;;;;;;5009930;28;20404;-46
2022/01/09 10:31:26;;;;;;;10.60;7.72;;;3.40;99.90;;;;;;5009990;28;20720;-45
2022/01/09 10:33:59;;;;;;;14.20;7.82;;;3.40;99.90;;;;;;5009427;28;20038;-44
2022/01/09 10:36:35;;;;;;;12.85;7.68;;;3.40;99.90;;;;;;5010657;28;20145;-45
2022/01/09 10:39:11;;;;;;;10.38;6.72;;;3.40;99.90;;;;;;5009090;28;20176;-50
2022/01/09 10:41:58;;;;;;;9.95;7.28;;;3.40;99.90;;;;;;5007715;28;20037;-45
2022/01/09 10:44:27;;;;;;;11.50;6.97;;;3.40;99.90;;;;;;5010150;28;20021;-45
2022/01/09 10:47:07;;;;;;;10.02;6.85;;;3.40;99.90;;;;;;5008755;28;20333;-47
2022/01/09 10:49:48;;;;;;;9.98;6.88;;;3.50;99.90;;;;;;5007965;28;20053;-50
2022/01/09 10:52:19;;;;;;;10.60;6.57;;;3.50;99.90;;;;;;5005199;28;20029;-48
2022/01/09 10:54:47;;;;;;;9.60;6.50;;;3.50;99.90;;;;;;5010030;28;20030;-47
2022/01/09 10:57:32;;;;;;;9.05;6.53;;;3.50;99.90;;;;;;5001373;28;20076;-48
2022/01/09 11:00:08;;;;;;;10.50;6.30;;;3.50;99.90;;;;;;5004325;28;20033;-47
2022/01/09 11:02:34;;;;;;;12.55;6.60;;;3.50;99.90;;;;;;4992315;28;20029;-45
2022/01/09 11:04:59;;;;;;;9.95;6.88;;;3.50;99.90;;;;;;5010422;28;20061;-47
2022/01/09 11:07:25;;;;;;;10.45;7.30;;;3.50;99.90;;;;;;5004739;28;20038;-49
2022/01/09 11:09:52;;;;;;;10.32;6.57;;;3.50;99.90;;;;;;5008440;28;20034;-47
2022/01/09 11:12:20;;;;;;;9.13;6.68;;;3.50;99.90;;;;;;5009948;28;20061;-47
2022/01/09 11:14:48;;;;;;;8.40;6.13;;;3.50;99.90;;;;;;5010470;28;20060;-46
2022/01/09 11:17:16;;;;;;;10.55;6.25;;;3.60;99.90;;;;;;5006083;28;20065;-46
2022/01/09 11:19:42;;;;;;;9.35;6.45;;;3.60;99.90;;;;;;5001712;28;20069;-46
2022/01/09 11:22:10;;;;;;;10.77;7.05;;;3.60;99.90;;;;;;5009500;28;20650;-46
2022/01/09 11:24:54;;;;;;;8.70;6.22;;;3.60;99.90;;;;;;4992578;28;20667;-45
2022/01/09 11:27:29;;;;;;;11.80;6.57;;;3.60;99.90;;;;;;5005848;28;20029;-47
2022/01/09 11:30:03;;;;;;;12.00;6.75;;;3.60;99.90;;;;;;5008221;28;20025;-44
2022/01/09 11:32:57;;;;;;;13.82;7.72;;;3.60;99.90;;;;;;4991524;28;20042;-49
2022/01/09 11:35:26;;;;;;;13.70;8.80;;;3.60;99.90;;;;;;5008314;28;20027;-50
2022/01/09 11:38:26;;;;;;;10.18;7.65;;;3.60;99.90;;;;;;5009193;28;20040;-49
2022/01/09 11:40:52;;;;;;;10.13;7.53;;;3.80;99.90;;;;;;5003444;28;20042;-48
2022/01/09 11:43:19;;;;;;;12.07;8.38;;;3.80;99.90;;;;;;5008748;28;20060;-49
2022/01/09 11:45:57;;;;;;;12.05;7.93;;;3.80;99.90;;;;;;5009591;28;20041;-48
2022/01/09 11:48:43;;;;;;;12.63;7.78;;;3.80;99.90;;;;;;5007784;28;20034;-48
2022/01/09 11:51:14;;;;;;;12.85;8.65;;;3.90;99.90;;;;;;5004164;28;20032;-48
2022/01/09 11:53:58;;;;;;;17.88;8.40;;;3.90;99.90;;;;;;5015473;28;20076;-47
2022/01/09 11:56:47;;;;;;;16.75;9.20;;;3.90;99.90;;;;;;5018764;28;20392;-47
2022/01/09 11:59:21;;;;;;;17.58;9.90;;;4.00;99.90;;;;;;5004883;28;20030;-47
2022/01/09 12:01:48;;;;;;;19.73;10.05;;;4.00;99.90;;;;;;5003850;28;20049;-47
2022/01/09 12:04:32;;;;;;;15.63;9.60;;;4.00;99.90;;;;;;5004259;28;20037;-51
2022/01/09 12:06:59;;;;;;;20.63;9.68;;;4.10;99.90;;;;;;5008495;28;20453;-48
2022/01/09 12:09:46;;;;;;;16.00;9.57;;;4.10;99.90;;;;;;5008702;28;20038;-46
2022/01/09 12:12:33;;;;;;;23.45;11.43;;;4.20;99.90;;;;;;5009726;28;20495;-48
2022/01/09 12:17:42;;;;;;;28.48;12.70;;;4.30;99.90;;;;;;5007855;28;20195;-51
2022/01/09 12:20:14;;;;;;;21.20;11.85;;;4.30;99.90;;;;;;4996257;28;20030;-52
2022/01/09 12:25:15;;;;;;;28.00;12.55;;;4.40;99.90;;;;;;5006119;28;20121;-45
2022/01/09 12:27:43;;;;;;;22.50;11.43;;;4.40;99.90;;;;;;5008286;28;20340;-50
2022/01/09 12:30:29;;;;;;;22.50;12.75;;;4.50;99.90;;;;;;5007672;28;20042;-52
2022/01/09 12:32:56;;;;;;;22.00;10.95;;;4.50;99.90;;;;;;5008539;28;20038;-52
2022/01/09 12:35:22;;;;;;;20.73;10.65;;;4.50;99.90;;;;;;5003376;28;20034;-45
2022/01/09 12:37:54;;;;;;;21.05;11.30;;;4.50;99.90;;;;;;5002535;28;20081;-46
2022/01/09 12:40:22;;;;;;;22.98;9.93;;;4.60;99.90;;;;;;5001452;28;20026;-53
2022/01/09 12:42:53;;;;;;;20.98;9.30;;;4.60;99.90;;;;;;5008483;28;20062;-47
2022/01/09 12:45:31;;;;;;;19.13;9.63;;;4.60;99.90;;;;;;5006576;28;20368;-53
2022/01/09 12:47:59;;;;;;;17.80;9.23;;;4.60;99.90;;;;;;5007025;28;20034;-48
2022/01/09 12:50:37;;;;;;;19.52;8.60;;;4.70;99.90;;;;;;5006248;28;20376;-48
2022/01/09 12:53:20;;;;;;;17.80;8.48;;;4.70;99.90;;;;;;5017062;28;20038;-49
2022/01/09 12:56:04;;;;;;;20.92;9.13;;;4.70;99.90;;;;;;5002989;28;20132;-49